Time;durP1;ratioP1;P1;durP2;ratioP2;P2;SDS_P1;SDS_P2;PMS_P1;PMS_P2;Temp;Humidity;BMP_temperature;BMP_pressure;BME280_temperature;BME280_humidity;BME280_pressure;Samples;Min_cycle;Max_cycle;Signal;HPM_P1;HPM_P2
2021/12/04 00:02:05;;;;;;;4.75;3.25;;;;;;;3.56;91.35;99544.25;5070164;28;20113;-45
2021/12/04 00:04:36;;;;;;;4.82;3.10;;;;;;;3.59;91.68;99540.56;5070462;28;20044;-47
2021/12/04 00:07:04;;;;;;;3.85;3.10;;;;;;;3.64;91.42;99536.63;5065559;28;20123;-45
2021/12/04 00:09:31;;;;;;;4.05;2.90;;;;;;;3.73;91.46;99536.75;5070110;28;20056;-46
2021/12/04 00:12:00;;;;;;;3.30;2.70;;;;;;;3.74;90.53;99533.19;5070398;28;20571;-45
2021/12/04 00:14:27;;;;;;;4.20;3.20;;;;;;;3.77;91.06;99523.38;5070945;28;20052;-45
2021/12/04 00:16:56;;;;;;;3.70;3.13;;;;;;;3.84;90.22;99521.03;5070963;28;20128;-45
2021/12/04 00:19:23;;;;;;;4.47;3.47;;;;;;;3.84;90.13;99523.63;5068363;28;20127;-45
2021/12/04 00:21:50;;;;;;;4.55;3.30;;;;;;;3.81;90.04;99531.66;5070461;28;20493;-50
2021/12/04 00:24:17;;;;;;;3.40;2.65;;;;;;;3.86;90.41;99525.13;5069390;28;20060;-49
2021/12/04 00:26:44;;;;;;;5.88;2.97;;;;;;;3.86;89.35;99526.88;5070552;28;20207;-44
2021/12/04 00:29:11;;;;;;;5.22;3.33;;;;;;;3.98;89.49;99525.78;5070772;28;20087;-48
2021/12/04 00:31:43;;;;;;;3.05;2.75;;;;;;;3.92;88.77;99526.31;5070722;28;20054;-46
2021/12/04 00:34:11;;;;;;;4.95;2.67;;;;;;;3.92;89.03;99521.16;5070820;28;20079;-49
2021/12/04 00:36:54;;;;;;;5.78;2.97;;;;;;;3.91;89.08;99524.69;5070509;28;20044;-48
2021/12/04 00:50:18;;;;;;;5.30;3.55;;;;;;;3.90;88.83;99512.72;5070746;28;20110;-45
2021/12/04 00:52:45;;;;;;;3.85;2.97;;;;;;;3.90;89.26;99504.94;5070517;28;20438;-44
2021/12/04 00:55:12;;;;;;;4.43;2.60;;;;;;;3.90;88.81;99492.00;5070237;28;20060;-44
2021/12/04 00:57:39;;;;;;;5.07;2.83;;;;;;;3.91;89.20;99498.81;5070073;28;20529;-47
2021/12/04 01:00:07;;;;;;;3.42;2.45;;;;;;;3.92;88.16;99487.50;5070147;28;20064;-44
2021/12/04 01:02:34;;;;;;;2.85;2.63;;;;;;;4.08;88.08;99490.31;5070312;28;20513;-44
2021/12/04 01:05:00;;;;;;;3.00;2.65;;;;;;;4.03;87.92;99479.56;5070370;28;20139;-45
2021/12/04 01:07:28;;;;;;;3.33;2.78;;;;;;;3.95;87.83;99474.28;5069740;28;20136;-49
2021/12/04 01:09:55;;;;;;;3.08;2.78;;;;;;;4.07;88.75;99482.69;5070315;28;20103;-45
2021/12/04 01:12:22;;;;;;;4.68;3.05;;;;;;;3.94;89.12;99485.59;5070362;28;20076;-46
2021/12/04 01:14:49;;;;;;;3.50;2.67;;;;;;;3.87;89.85;99481.94;5073665;28;20726;-44
2021/12/04 01:17:15;;;;;;;3.55;2.95;;;;;;;3.87;89.93;99476.75;5074408;28;20486;-45
2021/12/04 01:19:42;;;;;;;5.47;3.28;;;;;;;3.85;89.91;99474.31;5073722;28;20094;-49
2021/12/04 01:22:09;;;;;;;4.00;3.30;;;;;;;3.82;89.80;99469.41;5073911;28;20131;-45
2021/12/04 01:24:41;;;;;;;3.47;3.17;;;;;;;3.83;90.40;99465.06;5074053;28;20064;-48
2021/12/04 01:27:09;;;;;;;5.30;3.20;;;;;;;3.86;90.29;99467.38;5074022;28;20135;-46
2021/12/04 01:29:37;;;;;;;3.90;3.40;;;;;;;3.83;90.34;99458.13;5072411;22;20057;-81
2021/12/04 01:32:12;;;;;;;4.80;3.70;;;;;;;3.85;90.38;99458.78;5044722;28;20053;-81
2021/12/04 01:34:39;;;;;;;4.07;3.33;;;;;;;3.79;90.92;99455.94;5038949;28;20073;-83
2021/12/04 01:37:10;;;;;;;5.40;3.50;;;;;;;3.89;90.79;99454.16;5044146;28;20495;-84
2021/12/04 01:39:41;;;;;;;4.57;3.42;;;;;;;3.74;90.51;99440.88;5044288;28;20064;-84
2021/12/04 01:42:08;;;;;;;4.28;3.63;;;;;;;3.84;90.97;99443.41;5069074;22;20040;-83
2021/12/04 01:44:34;;;;;;;4.35;3.50;;;;;;;3.78;91.56;99441.41;5072230;28;20468;-80
2021/12/04 01:47:11;;;;;;;5.03;3.78;;;;;;;3.79;91.16;99443.81;5082867;28;20139;-86
2021/12/04 01:49:38;;;;;;;4.72;3.80;;;;;;;3.74;91.89;99440.88;5083989;28;20140;-83
2021/12/04 01:52:06;;;;;;;5.10;3.90;;;;;;;3.77;92.03;99439.78;5082731;28;20414;-80
2021/12/04 01:54:33;;;;;;;5.05;4.15;;;;;;;3.77;92.67;99444.94;5082959;28;20108;-84
2021/12/04 01:57:01;;;;;;;5.20;3.90;;;;;;;3.75;92.44;99439.91;5086150;28;20135;-82
2021/12/04 01:59:28;;;;;;;5.00;4.00;;;;;;;3.79;92.15;99443.00;5082120;28;20041;-83
2021/12/04 02:01:55;;;;;;;5.10;4.30;;;;;;;3.73;92.93;99435.84;5080008;28;20047;-80
2021/12/04 02:04:22;;;;;;;9.77;4.38;;;;;;;3.66;93.20;99433.81;5083440;28;20044;-83
2021/12/04 02:06:48;;;;;;;5.45;4.38;;;;;;;3.59;93.51;99435.31;5080812;28;20052;-82
2021/12/04 02:09:15;;;;;;;6.93;5.20;;;;;;;3.57;93.42;99433.84;5079893;28;20135;-82
2021/12/04 02:11:42;;;;;;;6.68;5.30;;;;;;;3.53;94.11;99435.06;5080418;28;20450;-86
2021/12/04 02:14:10;;;;;;;7.80;5.47;;;;;;;3.43;94.55;99427.31;5090361;28;20080;-81
2021/12/04 02:16:36;;;;;;;7.30;5.65;;;;;;;3.45;94.61;99435.75;5082752;28;20127;-82
2021/12/04 02:19:03;;;;;;;7.93;5.07;;;;;;;3.43;95.06;99416.97;5081152;28;20076;-82
2021/12/04 02:21:32;;;;;;;6.10;5.20;;;;;;;3.42;94.81;99424.88;5081878;28;20443;-82
2021/12/04 02:23:58;;;;;;;7.47;5.63;;;;;;;3.40;95.10;99417.25;5079965;28;20044;-82
2021/12/04 02:26:25;;;;;;;7.22;5.72;;;;;;;3.40;95.09;99421.63;5096933;28;20056;-81
2021/12/04 02:28:52;;;;;;;8.40;5.50;;;;;;;3.39;95.37;99420.00;5089887;28;20048;-81
2021/12/04 02:31:19;;;;;;;7.28;5.65;;;;;;;3.39;95.38;99415.63;5082680;28;20483;-82
2021/12/04 02:33:45;;;;;;;10.85;6.13;;;;;;;3.37;95.32;99409.78;5081685;28;20135;-84
2021/12/04 02:36:12;;;;;;;8.40;5.82;;;;;;;3.36;95.53;99405.56;5092066;28;20083;-82
2021/12/04 02:38:40;;;;;;;7.15;5.65;;;;;;;3.42;95.24;99399.84;5089544;28;20105;-83
2021/12/04 02:41:09;;;;;;;7.00;5.32;;;;;;;3.39;95.82;99394.94;5088539;28;20053;-82
2021/12/04 02:43:36;;;;;;;8.75;5.97;;;;;;;3.36;95.50;99390.06;5090002;28;20053;-82
2021/12/04 02:46:03;;;;;;;6.75;5.50;;;;;;;3.36;95.71;99384.88;5090810;28;20044;-84
2021/12/04 02:48:30;;;;;;;9.40;6.13;;;;;;;3.36;95.77;99373.72;5094573;28;20106;-82
2021/12/04 02:50:56;;;;;;;7.75;6.10;;;;;;;3.40;95.27;99378.47;5091147;28;20072;-81
2021/12/04 02:53:23;;;;;;;6.72;5.53;;;;;;;3.35;95.43;99372.91;5094788;28;20032;-82
2021/12/04 02:55:53;;;;;;;6.63;5.60;;;;;;;3.34;95.82;99360.94;5093053;28;20075;-82
2021/12/04 02:58:20;;;;;;;9.00;5.75;;;;;;;3.36;95.48;99365.97;5087221;28;20163;-83
2021/12/04 03:00:50;;;;;;;7.75;5.13;;;;;;;3.42;95.25;99358.47;5080366;28;20127;-80
2021/12/04 03:03:19;;;;;;;7.75;5.63;;;;;;;3.36;95.34;99359.03;5077781;28;20049;-81
2021/12/04 03:05:49;;;;;;;6.22;5.20;;;;;;;3.35;95.25;99352.22;5087487;28;20112;-83
2021/12/04 03:08:17;;;;;;;6.35;5.10;;;;;;;3.35;95.64;99347.06;5088350;28;20172;-82
2021/12/04 03:10:44;;;;;;;6.47;5.25;;;;;;;3.34;95.86;99346.25;5089118;28;20053;-86
2021/12/04 03:13:12;;;;;;;7.13;5.32;;;;;;;3.37;95.68;99344.31;5092004;28;20059;-83
2021/12/04 03:15:42;;;;;;;6.63;5.22;;;;;;;3.34;95.36;99346.25;5092188;28;20060;-82
2021/12/04 03:18:09;;;;;;;6.43;4.95;;;;;;;3.34;95.43;99348.81;5093889;28;20078;-81
2021/12/04 03:20:41;;;;;;;6.90;5.03;;;;;;;3.32;95.97;99335.22;5092924;28;20048;-81
2021/12/04 03:23:14;;;;;;;7.35;5.20;;;;;;;3.33;95.80;99328.28;5096454;28;20039;-81
2021/12/04 03:25:43;;;;;;;6.68;5.22;;;;;;;3.31;96.18;99330.19;5093217;28;20142;-81
2021/12/04 03:28:12;;;;;;;7.72;6.03;;;;;;;3.29;96.62;99321.78;5088893;28;20132;-82
2021/12/04 03:30:44;;;;;;;9.50;6.70;;;;;;;3.25;96.82;99312.69;5084581;28;20060;-82
2021/12/04 03:41:35;;;;;;;9.23;6.80;;;;;;;3.19;97.12;99285.63;5078085;28;20140;-81
2021/12/04 03:44:02;;;;;;;9.98;7.10;;;;;;;3.15;97.29;99284.28;5076056;28;20354;-81
2021/12/04 03:46:30;;;;;;;10.70;7.32;;;;;;;3.12;96.71;99281.16;5075947;28;20102;-81
2021/12/04 03:48:56;;;;;;;11.70;7.70;;;;;;;3.11;97.27;99282.13;5078927;28;20076;-82
2021/12/04 03:51:23;;;;;;;10.32;7.50;;;;;;;3.11;97.19;99271.78;5092325;28;20044;-85
2021/12/04 03:53:50;;;;;;;10.25;7.57;;;;;;;3.11;97.11;99279.53;5094153;28;20080;-82
2021/12/04 03:56:21;;;;;;;12.07;8.15;;;;;;;3.15;96.79;99286.03;5092669;28;20068;-82
2021/12/04 03:58:48;;;;;;;10.93;8.38;;;;;;;3.11;96.31;99274.34;5090540;28;20040;-81
2021/12/04 04:01:15;;;;;;;10.13;8.27;;;;;;;3.13;96.42;99267.28;5094839;28;20354;-82
2021/12/04 04:03:43;;;;;;;10.07;7.70;;;;;;;3.12;96.52;99273.41;5090176;28;20071;-82
2021/12/04 04:06:09;;;;;;;10.50;7.85;;;;;;;3.12;96.48;99278.56;5092170;28;20052;-81
2021/12/04 04:08:36;;;;;;;10.93;7.93;;;;;;;3.09;96.33;99264.16;5088684;28;20040;-80
2021/12/04 04:11:03;;;;;;;9.30;7.28;;;;;;;3.12;96.35;99284.56;5084373;28;20072;-84
2021/12/04 04:13:30;;;;;;;10.25;8.00;;;;;;;3.14;96.50;99266.31;5089757;28;20048;-83
2021/12/04 04:15:58;;;;;;;10.50;7.97;;;;;;;3.12;96.82;99279.38;5090134;28;20072;-83
2021/12/04 04:18:24;;;;;;;13.77;8.32;;;;;;;3.13;96.77;99277.63;5089468;28;20088;-83
2021/12/04 04:20:52;;;;;;;10.45;7.75;;;;;;;3.13;96.55;99277.63;5091599;28;20053;-84
2021/12/04 04:23:19;;;;;;;10.02;8.00;;;;;;;3.12;96.28;99274.22;5092505;28;20032;-85
2021/12/04 04:25:46;;;;;;;10.73;7.63;;;;;;;3.15;96.34;99265.38;5089560;28;20094;-83
2021/12/04 04:28:12;;;;;;;10.90;8.02;;;;;;;3.13;96.42;99264.69;5091318;28;20067;-82
2021/12/04 04:30:39;;;;;;;9.95;7.85;;;;;;;3.15;96.11;99262.78;5092990;28;20143;-82
2021/12/04 04:33:07;;;;;;;9.07;7.70;;;;;;;3.14;96.19;99264.56;5093081;28;20075;-83
2021/12/04 04:35:34;;;;;;;9.90;7.85;;;;;;;3.16;96.33;99267.81;5096125;28;20070;-85
2021/12/04 04:38:22;;;;;;;12.20;8.57;;;;;;;3.19;96.05;99258.97;5094089;28;20106;-82
2021/12/04 04:57:49;;;;;;;10.57;7.35;;;;;;;3.19;96.05;99243.44;5093858;28;20072;-85
2021/12/04 05:00:29;;;;;;;9.90;7.90;;;;;;;3.18;95.52;99241.81;5092848;28;20040;-84
2021/12/04 05:11:15;;;;;;;8.85;7.00;;;;;;;3.18;96.12;99226.31;5055291;28;20083;-84
2021/12/04 05:13:42;;;;;;;10.45;7.78;;;;;;;3.15;96.77;99232.59;5087856;28;20431;-87
2021/12/04 05:16:13;;;;;;;10.00;7.32;;;;;;;3.20;96.19;99224.41;5089933;28;20052;-83
2021/12/04 05:18:43;;;;;;;9.05;6.90;;;;;;;3.17;96.37;99215.16;5092455;28;20044;-82
2021/12/04 05:21:13;;;;;;;9.40;7.63;;;;;;;3.16;96.49;99207.56;5094110;28;20101;-83
2021/12/04 05:23:43;;;;;;;9.18;7.18;;;;;;;3.14;96.30;99204.28;5093244;28;20048;-84
2021/12/04 05:26:14;;;;;;;9.55;7.45;;;;;;;3.15;95.97;99211.91;5091866;28;20469;-83
2021/12/04 05:28:41;;;;;;;10.27;7.25;;;;;;;3.17;96.33;99209.19;5095363;28;20048;-84
2021/12/04 05:31:08;;;;;;;9.30;7.03;;;;;;;3.17;95.88;99206.59;5101534;28;20126;-82
2021/12/04 05:33:35;;;;;;;8.55;6.80;;;;;;;3.14;96.21;99212.03;5109855;28;20060;-82
2021/12/04 05:36:03;;;;;;;8.25;6.63;;;;;;;3.21;96.30;99215.69;5115492;28;20071;-82
2021/12/04 05:38:31;;;;;;;11.73;7.40;;;;;;;3.16;96.16;99208.38;5112844;28;20066;-82
2021/12/04 05:40:58;;;;;;;8.70;7.07;;;;;;;3.18;96.04;99213.41;5097141;28;20123;-83
2021/12/04 05:43:26;;;;;;;9.75;7.07;;;;;;;3.19;95.92;99207.25;5095951;28;20108;-83
2021/12/04 05:45:59;;;;;;;9.50;7.03;;;;;;;3.17;96.33;99210.00;5077551;28;20039;-83
2021/12/04 05:48:40;;;;;;;9.20;6.93;;;;;;;3.21;95.91;99216.50;5094211;28;20048;-83
2021/12/04 05:54:18;;;;;;;8.32;6.82;;;;;;;3.23;96.13;99221.53;5092951;28;20048;-86
2021/12/04 05:56:44;;;;;;;11.57;7.30;;;;;;;3.23;95.94;99221.53;5094304;28;20032;-85
2021/12/04 05:59:12;;;;;;;10.02;6.97;;;;;;;3.23;96.25;99213.78;5089395;28;20044;-83
2021/12/04 06:01:39;;;;;;;9.75;6.70;;;;;;;3.26;95.74;99209.13;5083806;28;20075;-83
2021/12/04 06:04:05;;;;;;;11.50;7.57;;;;;;;3.27;96.22;99210.75;5085797;28;20059;-84
2021/12/04 06:06:32;;;;;;;9.88;6.90;;;;;;;3.28;96.17;99214.16;5086931;28;20113;-85
2021/12/04 06:08:59;;;;;;;9.43;7.55;;;;;;;3.26;96.16;99209.13;5086863;28;20139;-83
2021/12/04 06:11:26;;;;;;;9.52;6.65;;;;;;;3.24;95.90;99215.41;5086183;28;20049;-83
2021/12/04 06:13:53;;;;;;;8.77;7.00;;;;;;;3.26;96.11;99223.84;5084775;28;20112;-84
2021/12/04 06:16:22;;;;;;;8.30;6.88;;;;;;;3.29;95.90;99206.25;5088542;28;20104;-84
2021/12/04 06:18:52;;;;;;;8.02;6.75;;;;;;;3.27;96.05;99209.94;5084617;28;20135;-81
2021/12/04 06:24:04;;;;;;;9.15;7.07;;;;;;;3.26;96.01;99196.22;5082181;28;20070;-83
2021/12/04 06:26:31;;;;;;;11.25;7.05;;;;;;;3.30;95.89;99194.16;5081820;28;20055;-81
2021/12/04 06:28:58;;;;;;;9.73;7.15;;;;;;;3.28;95.79;99189.13;5080897;28;20139;-82
2021/12/04 06:31:26;;;;;;;10.40;7.60;;;;;;;3.25;95.25;99193.78;5080951;28;20131;-82
2021/12/04 06:33:52;;;;;;;9.70;7.72;;;;;;;3.27;95.48;99199.59;5085388;28;20056;-82
2021/12/04 06:36:21;;;;;;;11.27;7.60;;;;;;;3.29;95.66;99206.25;5092132;28;20076;-82
2021/12/04 06:38:48;;;;;;;10.73;7.15;;;;;;;3.27;95.52;99207.38;5093158;28;20033;-82
2021/12/04 06:41:15;;;;;;;9.98;7.30;;;;;;;3.28;95.30;99211.56;5091363;28;20072;-82
2021/12/04 06:43:47;;;;;;;10.57;7.20;;;;;;;3.26;96.13;99197.97;5093620;28;20067;-85
2021/12/04 06:46:13;;;;;;;12.07;7.95;;;;;;;3.27;95.38;99208.19;5085191;28;20052;-82
2021/12/04 06:48:44;;;;;;;11.00;7.70;;;;;;;3.28;95.88;99209.81;5081842;28;20427;-81
2021/12/04 06:51:21;;;;;;;9.60;7.78;;;;;;;3.28;95.74;99201.25;5080717;28;20044;-81
2021/12/04 06:53:53;;;;;;;11.90;8.30;;;;;;;3.27;95.90;99199.59;5080649;28;20075;-82
2021/12/04 06:56:22;;;;;;;9.60;7.72;;;;;;;3.30;96.01;99205.31;5078239;28;20389;-83
2021/12/04 06:58:48;;;;;;;10.90;7.95;;;;;;;3.30;95.63;99202.72;5079169;28;20057;-82
2021/12/04 07:01:17;;;;;;;11.05;7.60;;;;;;;3.27;95.72;99200.41;5082086;28;20055;-83
2021/12/04 07:03:45;;;;;;;11.30;8.05;;;;;;;3.26;95.64;99200.56;5080446;28;20394;-83
2021/12/04 07:06:11;;;;;;;10.70;7.72;;;;;;;3.30;95.87;99204.50;5078151;28;20052;-82
2021/12/04 07:08:38;;;;;;;9.45;7.50;;;;;;;3.30;95.38;99199.31;5078568;28;20052;-82
2021/12/04 07:11:05;;;;;;;11.63;8.10;;;;;;;3.33;95.12;99202.41;5078535;28;20413;-82
2021/12/04 07:13:32;;;;;;;10.35;7.95;;;;;;;3.33;95.00;99199.00;5069529;28;20044;-82
2021/12/04 07:16:03;;;;;;;10.13;7.45;;;;;;;3.34;94.84;99200.63;5075005;28;20076;-82
2021/12/04 07:18:30;;;;;;;12.52;8.07;;;;;;;3.32;94.66;99195.59;5076553;28;20056;-85
2021/12/04 07:20:58;;;;;;;10.25;7.78;;;;;;;3.35;95.05;99207.44;5078045;28;20098;-83
2021/12/04 07:23:25;;;;;;;9.73;7.72;;;;;;;3.37;94.96;99210.69;5077634;28;20055;-83
2021/12/04 07:25:52;;;;;;;11.02;8.30;;;;;;;3.36;95.00;99198.72;5079287;28;20051;-83
2021/12/04 07:28:19;;;;;;;10.85;7.68;;;;;;;3.36;95.20;99198.72;5081298;28;20135;-84
2021/12/04 07:30:46;;;;;;;9.93;7.53;;;;;;;3.37;94.87;99205.50;5076644;28;20108;-87
2021/12/04 07:33:12;;;;;;;10.25;7.90;;;;;;;3.37;94.88;99207.28;5082990;28;20131;-82
2021/12/04 07:35:39;;;;;;;10.40;8.00;;;;;;;3.38;94.59;99206.31;5080109;28;20095;-82
2021/12/04 07:38:07;;;;;;;11.30;7.90;;;;;;;3.43;95.02;99207.53;5086235;28;20048;-83
2021/12/04 07:40:34;;;;;;;12.55;8.38;;;;;;;3.38;94.81;99201.97;5092539;28;20072;-84
2021/12/04 07:43:02;;;;;;;10.13;8.20;;;;;;;3.28;94.69;99175.38;5098916;22;20132;-80
2021/12/04 07:45:29;;;;;;;9.85;7.50;;;;;;;3.35;93.98;99186.75;5054798;28;20419;-81
2021/12/04 07:47:56;;;;;;;10.77;7.70;;;;;;;3.28;94.29;99173.63;5054584;28;20491;-79
2021/12/04 07:50:23;;;;;;;9.20;7.50;;;;;;;3.32;94.07;99176.69;5054863;28;20080;-79
2021/12/04 07:52:50;;;;;;;11.90;7.57;;;;;;;3.42;94.47;99194.75;5054918;28;20106;-79
2021/12/04 07:55:18;;;;;;;10.88;7.97;;;;;;;3.44;94.44;99205.75;5054899;28;20438;-80
2021/12/04 07:57:50;;;;;;;9.88;7.72;;;;;;;3.48;93.94;99201.91;5055005;28;20053;-79
2021/12/04 08:00:21;;;;;;;10.00;7.70;;;;;;;3.39;95.08;99192.44;5055012;28;20401;-80
2021/12/04 08:02:48;;;;;;;11.57;7.57;;;;;;;3.30;94.62;99182.03;5054547;28;20766;-80
2021/12/04 08:05:20;;;;;;;11.88;7.85;;;;;;;3.40;95.01;99197.47;5054276;28;20427;-80
2021/12/04 08:07:53;;;;;;;10.03;7.80;;;;;;;3.46;94.37;99204.66;5055308;28;20136;-79
2021/12/04 08:10:31;;;;;;;9.48;7.55;;;;;;;3.42;95.02;99197.31;5054713;28;20052;-79
2021/12/04 08:13:02;;;;;;;10.88;8.13;;;;;;;3.40;94.51;99189.72;5054631;28;20076;-79
2021/12/04 08:15:42;;;;;;;10.60;8.40;;;;;;;3.42;94.63;99198.13;5054556;28;20094;-80
2021/12/04 08:18:32;;;;;;;10.57;7.85;;;;;;;3.37;94.20;99179.66;5054688;28;20061;-80
2021/12/04 08:20:59;;;;;;;13.77;8.07;;;;;;;3.39;94.67;99180.31;5054886;28;20056;-81
2021/12/04 08:23:39;;;;;;;12.18;8.40;;;;;;;3.45;94.88;99194.44;5055055;28;20080;-80
2021/12/04 08:26:08;;;;;;;12.75;9.02;;;;;;;3.45;95.30;99197.84;5054896;28;20397;-80
2021/12/04 08:28:43;;;;;;;11.15;8.43;;;;;;;3.45;95.38;99192.69;5054797;28;20048;-80
2021/12/04 08:31:36;;;;;;;10.77;8.93;;;;;;;3.45;94.65;99182.34;5054961;28;20051;-79
2021/12/04 08:34:25;;;;;;;10.95;8.13;;;;;;;3.48;95.14;99184.63;4993031;28;20085;-79
2021/12/04 08:36:55;;;;;;;13.38;8.55;;;;;;;3.48;94.44;99176.88;4993005;28;20062;-80
2021/12/04 08:39:28;;;;;;;11.77;8.15;;;;;;;3.48;94.16;99179.47;5039559;28;20049;-79
2021/12/04 08:41:57;;;;;;;11.70;8.15;;;;;;;3.54;94.95;99186.63;5054823;28;20053;-80
2021/12/04 08:44:29;;;;;;;11.25;8.25;;;;;;;3.61;94.68;99182.50;5054213;28;20049;-80
2021/12/04 08:46:56;;;;;;;12.25;8.30;;;;;;;3.53;93.90;99169.50;5054263;28;20051;-80
2021/12/04 08:49:29;;;;;;;10.13;7.93;;;;;;;3.62;94.12;99184.13;5054244;28;20052;-80
2021/12/04 08:52:00;;;;;;;9.80;8.07;;;;;;;3.65;94.09;99178.66;5054745;28;20049;-80
2021/12/04 08:54:26;;;;;;;11.00;8.50;;;;;;;3.60;93.79;99159.38;5054080;28;20049;-80
2021/12/04 08:56:53;;;;;;;10.30;7.90;;;;;;;3.74;93.64;99166.63;5054411;28;20053;-79
2021/12/04 08:59:21;;;;;;;11.85;8.13;;;;;;;3.83;93.33;99176.06;5057680;28;20109;-79
2021/12/04 09:01:49;;;;;;;9.90;8.10;;;;;;;3.83;93.79;99175.25;5054223;28;20061;-80
2021/12/04 09:04:23;;;;;;;10.35;8.00;;;;;;;3.84;93.65;99175.09;5053969;28;20061;-80
2021/12/04 09:06:53;;;;;;;10.07;8.10;;;;;;;3.91;92.96;99183.91;5054112;28;20405;-79
2021/12/04 09:09:20;;;;;;;10.77;8.15;;;;;;;4.01;93.23;99199.34;5054419;28;20179;-80
2021/12/04 09:11:50;;;;;;;12.25;8.23;;;;;;;4.00;92.52;99177.03;5053218;28;20092;-80
2021/12/04 09:14:20;;;;;;;9.65;8.15;;;;;;;3.99;92.66;99172.81;5053755;28;20281;-80
2021/12/04 09:16:51;;;;;;;11.00;8.23;;;;;;;4.09;92.62;99175.31;5053745;28;20044;-80
2021/12/04 09:19:18;;;;;;;9.32;7.60;;;;;;;3.94;91.93;99160.31;5053031;28;20095;-80
2021/12/04 09:21:45;;;;;;;9.60;7.85;;;;;;;4.05;91.30;99169.63;5053449;28;20338;-80
2021/12/04 09:24:14;;;;;;;9.18;7.60;;;;;;;4.10;92.47;99177.75;5053262;28;20084;-80
2021/12/04 09:26:51;;;;;;;11.55;7.72;;;;;;;4.11;91.44;99179.38;5053005;28;20045;-81
2021/12/04 09:35:15;;;;;;;10.73;7.85;;;;;;;4.11;92.07;99171.63;5032319;28;20123;-78
2021/12/04 10:00:12;;;;;;;10.73;8.27;;;;;;;4.38;91.60;99094.75;5061298;28;20132;-80
2021/12/04 10:06:03;;;;;;;8.32;7.20;;;;;;;4.52;89.85;99104.53;5045321;28;20124;-81
2021/12/04 10:20:14;;;;;;;8.52;6.85;;;;;;;4.64;89.16;99067.03;5056116;28;20415;-81
2021/12/04 10:23:31;;;;;;;8.43;7.10;;;;;;;4.52;89.10;99068.28;5050084;28;20398;-82
2021/12/04 10:32:41;;;;;;;9.95;7.07;;;;;;;4.64;88.76;99041.13;5056049;28;20056;-80
2021/12/04 10:35:16;;;;;;;9.20;7.40;;;;;;;4.71;88.32;99057.69;5055795;28;20063;-80
2021/12/04 10:41:13;;;;;;;10.00;7.57;;;;;;;4.76;88.96;99029.50;4994167;28;20058;-79
2021/12/04 10:43:43;;;;;;;9.45;7.25;;;;;;;4.80;89.15;99030.78;5007293;28;20057;-81
2021/12/04 10:46:22;;;;;;;8.77;6.88;;;;;;;4.53;87.78;98995.59;5055776;28;20140;-79
2021/12/04 10:49:01;;;;;;;8.50;7.03;;;;;;;4.59;88.20;99002.75;5055098;28;20366;-80
2021/12/04 10:51:34;;;;;;;8.85;7.13;;;;;;;4.50;88.10;98995.91;5055702;28;20045;-79
2021/12/04 10:54:23;;;;;;;9.57;6.80;;;;;;;4.60;88.14;98993.19;5055300;28;20053;-80
2021/12/04 10:57:14;;;;;;;11.75;6.93;;;;;;;4.81;89.28;99013.47;5055455;28;20126;-80
2021/12/04 10:59:48;;;;;;;7.70;6.60;;;;;;;4.94;87.65;99019.00;5055477;28;20057;-80
2021/12/04 11:02:21;;;;;;;8.02;6.45;;;;;;;4.83;87.04;99004.56;5055214;28;20057;-80
2021/12/04 11:04:51;;;;;;;7.90;6.38;;;;;;;4.81;87.42;99000.50;5055401;28;20056;-80
2021/12/04 11:18:52;;;;;;;7.22;6.25;;;;;;;4.94;87.67;98967.97;5015992;28;20145;-79
2021/12/04 11:27:49;;;;;;;8.27;6.53;;;;;;;4.83;87.88;98941.56;5054366;28;20057;-79
2021/12/04 11:36:18;;;;;;;8.18;6.10;;;;;;;4.99;87.60;98911.28;5055177;28;20130;-80
2021/12/04 11:38:52;;;;;;;8.00;6.85;;;;;;;4.98;88.36;98908.84;5054869;28;20055;-80
2021/12/04 11:41:35;;;;;;;7.72;6.18;;;;;;;4.77;86.95;98901.56;5054424;28;20052;-79
2021/12/04 11:44:05;;;;;;;;;;;;;;;4.87;87.40;98915.16;5054723;28;20076;-79
2021/12/04 11:46:44;;;;;;;7.80;6.70;;;;;;;4.90;87.31;98901.06;5054243;28;19986;-80
2021/12/04 11:49:15;;;;;;;8.30;6.65;;;;;;;4.85;87.25;98891.19;5054040;28;20067;-79
2021/12/04 11:51:55;;;;;;;9.15;6.85;;;;;;;4.88;87.05;98877.91;5054220;28;20080;-79
2021/12/04 11:54:26;;;;;;;8.10;6.55;;;;;;;4.90;87.29;98877.75;5054555;28;20064;-79
2021/12/04 11:57:02;;;;;;;9.52;6.40;;;;;;;5.02;86.59;98888.59;5055246;28;20048;-79
2021/12/04 11:59:33;;;;;;;6.93;5.38;;;;;;;4.86;87.04;98853.13;5054142;28;20421;-78
2021/12/04 12:02:03;;;;;;;7.20;5.30;;;;;;;5.10;87.13;98876.44;5054327;28;20465;-79
2021/12/04 12:04:38;;;;;;;7.07;5.70;;;;;;;4.98;86.81;98868.19;5054078;28;20053;-79
2021/12/04 12:07:17;;;;;;;17.88;6.43;;;;;;;5.04;86.68;98873.69;5054044;28;20152;-79
2021/12/04 12:09:46;;;;;;;11.50;5.80;;;;;;;5.05;87.33;98877.91;5053901;28;20049;-80
2021/12/04 12:12:19;;;;;;;15.80;6.63;;;;;;;5.10;87.55;98871.28;5053963;28;20362;-79
2021/12/04 12:14:50;;;;;;;16.52;6.13;;;;;;;5.04;86.33;98840.00;5053759;28;20051;-79
2021/12/04 12:17:37;;;;;;;20.38;6.60;;;;;;;5.09;86.71;98832.53;5053934;28;20056;-79
2021/12/04 12:20:14;;;;;;;16.77;6.55;;;;;;;5.12;87.25;98846.00;5053963;28;20577;-79
2021/12/04 12:22:45;;;;;;;14.25;6.05;;;;;;;5.17;87.04;98835.13;5053625;28;20064;-79
2021/12/04 12:25:24;;;;;;;12.32;5.60;;;;;;;5.18;86.95;98834.16;5053714;28;20055;-79
2021/12/04 12:31:47;;;;;;;11.02;6.50;;;;;;;5.25;86.88;98846.25;5053356;28;20084;-79
2021/12/04 12:34:01;;;;;;;13.27;6.15;;;;;;;5.13;86.11;98818.28;5053452;28;20469;-78
2021/12/04 12:36:30;;;;;;;10.45;5.13;;;;;;;5.09;86.21;98822.19;5053878;28;20332;-80
2021/12/04 12:39:00;;;;;;;8.27;5.22;;;;;;;5.04;85.98;98791.56;5053831;28;20049;-80
2021/12/04 12:41:37;;;;;;;7.05;5.32;;;;;;;5.15;86.69;98821.53;5053710;28;20068;-79
2021/12/04 12:44:10;;;;;;;7.82;5.68;;;;;;;5.17;86.73;98829.94;5053910;28;20123;-79
2021/12/04 12:46:43;;;;;;;9.85;5.05;;;;;;;5.25;86.32;98832.50;5053417;28;20144;-79
2021/12/04 12:49:27;;;;;;;6.70;5.05;;;;;;;5.21;86.43;98821.63;5053754;28;20080;-79
2021/12/04 12:52:04;;;;;;;6.70;5.13;;;;;;;5.12;86.62;98812.28;5053653;28;20048;-79
2021/12/04 12:54:49;;;;;;;8.57;5.47;;;;;;;5.13;86.47;98805.31;5054014;28;20056;-79
2021/12/04 12:57:22;;;;;;;8.00;5.50;;;;;;;5.19;87.05;98820.22;5054540;28;20044;-79
2021/12/04 13:14:11;;;;;;;6.28;5.22;;;;;;;5.44;89.60;98821.75;4995568;28;20042;-80
2021/12/04 13:16:38;;;;;;;7.05;5.45;;;;;;;5.43;89.87;98834.88;5043671;28;20084;-79
2021/12/04 13:19:10;;;;;;;7.07;5.47;;;;;;;5.37;89.34;98825.19;5057010;28;20107;-80
2021/12/04 13:21:42;;;;;;;6.60;5.75;;;;;;;5.32;90.07;98830.84;5056978;28;20122;-79
2021/12/04 13:24:11;;;;;;;6.77;5.20;;;;;;;5.19;90.13;98820.22;5056973;28;20289;-79
2021/12/04 13:26:41;;;;;;;7.75;5.80;;;;;;;5.37;90.53;98841.53;5056786;28;20546;-79
2021/12/04 13:29:11;;;;;;;7.25;5.40;;;;;;;5.22;90.72;98841.41;5056833;28;20403;-79
2021/12/04 13:31:38;;;;;;;7.28;5.75;;;;;;;5.14;91.25;98825.09;5056548;28;20535;-79
2021/12/04 13:34:06;;;;;;;7.05;5.75;;;;;;;5.07;90.82;98819.75;5056853;28;20127;-79
2021/12/04 13:36:33;;;;;;;6.90;5.80;;;;;;;5.10;91.08;98821.19;5056714;28;20140;-79
2021/12/04 13:39:06;;;;;;;7.40;6.00;;;;;;;5.02;91.16;98809.06;5056600;28;20057;-79
2021/12/04 13:41:33;;;;;;;7.35;5.80;;;;;;;5.15;90.93;98822.31;5056465;28;20080;-79
2021/12/04 13:44:02;;;;;;;8.43;5.72;;;;;;;5.31;90.96;98811.09;5072545;22;20076;-81
2021/12/04 13:46:37;;;;;;;7.18;5.90;;;;;;;5.07;91.29;98814.56;5074061;28;20135;-80
2021/12/04 13:49:04;;;;;;;8.07;6.25;;;;;;;5.14;91.60;98814.72;5078118;28;20155;-80
2021/12/04 13:51:32;;;;;;;6.78;5.90;;;;;;;5.17;91.78;98814.38;5079247;28;20446;-82
2021/12/04 13:54:01;;;;;;;8.63;6.20;;;;;;;4.98;92.50;98800.81;5078033;28;20127;-80
2021/12/04 13:56:30;;;;;;;7.60;6.38;;;;;;;4.92;92.79;98808.41;5078244;28;20053;-80
2021/12/04 13:59:01;;;;;;;7.07;5.80;;;;;;;4.93;92.29;98802.25;5078232;28;20408;-81
2021/12/04 14:01:30;;;;;;;10.95;6.40;;;;;;;4.90;93.17;98798.22;5078040;28;20166;-80
2021/12/04 14:03:58;;;;;;;7.40;6.32;;;;;;;4.92;92.91;98795.47;5079662;28;20062;-80
2021/12/04 14:06:26;;;;;;;8.60;6.43;;;;;;;4.80;93.04;98805.34;5077909;28;20144;-81
2021/12/04 14:08:59;;;;;;;7.75;6.70;;;;;;;4.81;93.35;98801.78;5078707;28;20048;-82
2021/12/04 14:11:33;;;;;;;10.40;7.50;;;;;;;4.92;93.88;98806.63;5080261;28;20080;-83
2021/12/04 14:14:09;;;;;;;9.95;7.65;;;;;;;5.04;94.17;98809.72;5078907;28;20091;-81
2021/12/04 14:16:35;;;;;;;8.10;6.38;;;;;;;5.07;94.07;98817.16;5078130;28;20086;-80
2021/12/04 14:19:11;;;;;;;12.07;10.13;;;;;;;4.98;94.49;98812.94;5078046;28;20413;-80